Time;durP1;ratioP1;P1;durP2;ratioP2;P2;SDS_P1;SDS_P2;PMS_P1;PMS_P2;Temp;Humidity;BMP_temperature;BMP_pressure;BME280_temperature;BME280_humidity;BME280_pressure;Samples;Min_cycle;Max_cycle;Signal;HPM_P1;HPM_P2
2023/09/24 00:01:35;;;;;;;;;;;;;;;28.65;32.16;100696.13;5103054;28;1115;-28
2023/09/24 00:04:00;;;;;;;;;;;;;;;28.65;32.32;100691.53;5116681;28;1894;-26
2023/09/24 00:06:26;;;;;;;;;;;;;;;28.81;32.28;100698.53;5104056;28;1088;-25
2023/09/24 00:08:51;;;;;;;;;;;;;;;28.71;32.30;100698.06;5106070;28;876;-28
2023/09/24 00:11:17;;;;;;;;;;;;;;;28.84;32.32;100700.84;5116113;28;1041;-28
2023/09/24 00:13:42;;;;;;;;;;;;;;;28.83;32.04;100701.03;5104269;28;1148;-25
2023/09/24 00:16:09;;;;;;;;;;;;;;;28.85;32.13;100690.88;5096352;28;1158;-25
2023/09/24 00:18:35;;;;;;;;;;;;;;;28.92;31.98;100699.88;5109661;28;1169;-28
2023/09/24 00:21:01;;;;;;;;;;;;;;;28.77;32.13;100693.72;5109107;28;1219;-26
2023/09/24 00:23:28;;;;;;;;;;;;;;;28.91;31.72;100690.06;5107992;28;1975;-30
2023/09/24 00:25:55;;;;;;;;;;;;;;;28.81;31.93;100686.91;5097094;28;1069;-26
2023/09/24 00:28:21;;;;;;;;;;;;;;;28.83;31.90;100685.66;5095983;28;1085;-28
2023/09/24 00:30:48;;;;;;;;;;;;;;;28.88;32.06;100681.53;5078207;28;1157;-27
2023/09/24 00:33:13;;;;;;;;;;;;;;;28.73;32.17;100677.03;5114308;28;919;-26
2023/09/24 00:35:39;;;;;;;;;;;;;;;28.89;32.14;100670.50;5079122;28;1173;-28
2023/09/24 00:38:04;;;;;;;;;;;;;;;28.83;31.81;100666.69;5108858;28;1142;-28
2023/09/24 00:40:30;;;;;;;;;;;;;;;28.85;32.01;100677.34;5110855;28;1082;-27
2023/09/24 00:42:55;;;;;;;;;;;;;;;28.85;31.83;100677.34;5096416;28;1042;-31
2023/09/24 00:45:25;;;;;;;;;;;;;;;28.79;32.03;100686.25;5104173;28;1983;-26
2023/09/24 00:47:51;;;;;;;;;;;;;;;28.77;31.78;100680.19;5070455;28;1229;-26
2023/09/24 00:50:16;;;;;;;;;;;;;;;28.82;31.67;100684.00;5102407;28;1082;-26
2023/09/24 00:52:42;;;;;;;;;;;;;;;28.81;31.61;100682.28;5068681;28;1347;-25
2023/09/24 00:55:08;;;;;;;;;;;;;;;28.78;32.20;100679.16;5083979;28;1217;-30
2023/09/24 00:57:34;;;;;;;;;;;;;;;28.78;31.92;100679.16;5108820;28;875;-29
2023/09/24 01:00:00;;;;;;;;;;;;;;;28.79;31.95;100678.97;5077705;28;1187;-26
2023/09/24 01:02:27;;;;;;;;;;;;;;;28.88;31.84;100671.53;5108126;28;1070;-25
2023/09/24 01:04:53;;;;;;;;;;;;;;;28.89;31.60;100678.63;5085702;28;1910;-30
2023/09/24 01:07:20;;;;;;;;;;;;;;;28.89;31.80;100683.19;5094704;28;1228;-27
2023/09/24 01:09:46;;;;;;;;;;;;;;;28.89;31.71;100673.22;5099519;28;1136;-26
2023/09/24 01:12:25;;;;;;;;;;;;;;;28.93;31.49;100674.47;5082109;28;1129;-28
2023/09/24 01:14:53;;;;;;;;;;;;;;;28.87;31.73;100677.13;5087815;28;1052;-26
2023/09/24 01:17:20;;;;;;;;;;;;;;;28.87;31.98;100680.69;5082635;28;1171;-26
2023/09/24 01:19:46;;;;;;;;;;;;;;;28.87;31.60;100677.13;5096655;28;1258;-29
2023/09/24 01:22:12;;;;;;;;;;;;;;;28.87;31.81;100677.97;5091238;28;1096;-27
2023/09/24 01:24:38;;;;;;;;;;;;;;;28.90;31.64;100669.47;5107247;28;1898;-29
2023/09/24 01:27:03;;;;;;;;;;;;;;;28.87;31.67;100675.28;5119333;28;1085;-26
2023/09/24 01:29:29;;;;;;;;;;;;;;;28.84;31.75;100664.84;5112673;28;1149;-31
2023/09/24 01:31:54;;;;;;;;;;;;;;;28.88;31.57;100668.00;5070630;28;1090;-26
2023/09/24 01:34:20;;;;;;;;;;;;;;;28.73;31.55;100671.63;5101356;28;1145;-29
2023/09/24 01:36:45;;;;;;;;;;;;;;;28.80;31.77;100669.81;5119413;28;1145;-26
2023/09/24 01:39:15;;;;;;;;;;;;;;;28.92;31.55;100670.09;5080588;28;1118;-28
2023/09/24 01:41:41;;;;;;;;;;;;;;;28.89;31.68;100673.22;5086174;28;1133;-27
2023/09/24 01:44:07;;;;;;;;;;;;;;;28.80;31.51;100667.09;5114580;28;1981;-27
2023/09/24 01:46:32;;;;;;;;;;;;;;;28.83;31.47;100657.72;5113642;28;1153;-25
2023/09/24 01:48:59;;;;;;;;;;;;;;;28.79;31.34;100660.03;5111617;28;1120;-26
2023/09/24 01:51:25;;;;;;;;;;;;;;;28.79;31.69;100656.47;5095248;28;1136;-30
2023/09/24 01:53:50;;;;;;;;;;;;;;;28.80;31.33;100667.09;5112291;28;1212;-25
2023/09/24 01:56:18;;;;;;;;;;;;;;;28.75;31.70;100663.28;5112030;28;1005;-30
2023/09/24 01:58:44;;;;;;;;;;;;;;;28.88;31.54;100665.28;5088956;28;1186;-25
2023/09/24 02:01:10;;;;;;;;;;;;;;;28.66;31.85;100668.84;5099157;28;1222;-27
2023/09/24 02:03:36;;;;;;;;;;;;;;;28.78;31.21;100666.44;5106780;28;1906;-25
2023/09/24 02:06:02;;;;;;;;;;;;;;;28.60;31.86;100675.06;5086340;28;1225;-24
2023/09/24 02:08:29;;;;;;;;;;;;;;;28.68;31.68;100674.91;5103978;28;1110;-25
2023/09/24 02:10:56;;;;;;;;;;;;;;;28.76;31.60;100675.81;5118034;28;1042;-26
2023/09/24 02:13:21;;;;;;;;;;;;;;;28.81;31.46;100679.59;5088798;28;1213;-29
2023/09/24 02:15:48;;;;;;;;;;;;;;;28.79;31.44;100683.53;5084446;28;1178;-27
2023/09/24 02:18:13;;;;;;;;;;;;;;;28.81;31.34;100681.47;5106780;28;1086;-26
2023/09/24 02:20:43;;;;;;;;;;;;;;;28.85;31.33;100680.88;5113552;28;1172;-27
2023/09/24 02:23:10;;;;;;;;;;;;;;;28.79;31.35;100680.84;5119013;28;1077;-27
2023/09/24 02:25:36;;;;;;;;;;;;;;;28.70;31.63;100680.13;5104221;28;1905;-26
2023/09/24 02:28:02;;;;;;;;;;;;;;;28.82;31.53;100684.00;5109775;28;1110;-25
2023/09/24 02:30:28;;;;;;;;;;;;;;;28.85;31.00;100691.72;5080023;28;1122;-26
2023/09/24 02:32:54;;;;;;;;;;;;;;;28.76;31.19;100690.16;5105725;28;1128;-28
2023/09/24 02:35:20;;;;;;;;;;;;;;;28.68;31.58;100684.91;5118451;28;1025;-28
2023/09/24 02:37:50;;;;;;;;;;;;;;;28.71;31.60;100693.47;5109838;28;1193;-27
2023/09/24 02:40:23;;;;;;;;;;;;;;;28.72;31.58;100692.44;5069242;28;1283;-26
2023/09/24 02:42:51;;;;;;;;;;;;;;;28.86;31.42;100697.97;5107609;28;1204;-25
2023/09/24 02:45:17;;;;;;;;;;;;;;;28.76;31.18;100692.88;5082660;28;1913;-25
2023/09/24 02:47:43;;;;;;;;;;;;;;;28.63;31.51;100693.59;5070876;28;1365;-27
2023/09/24 02:50:12;;;;;;;;;;;;;;;28.75;31.42;100688.50;5092736;28;1058;-26
2023/09/24 02:52:39;;;;;;;;;;;;;;;28.76;31.31;100683.94;5098327;28;1074;-26
2023/09/24 02:55:05;;;;;;;;;;;;;;;28.73;31.39;100685.16;5102904;28;1014;-25
2023/09/24 02:57:30;;;;;;;;;;;;;;;28.77;31.31;100685.59;5088017;28;1133;-26
2023/09/24 02:59:57;;;;;;;;;;;;;;;28.80;31.27;100669.81;5111319;28;1057;-25
2023/09/24 03:02:23;;;;;;;;;;;;;;;28.60;31.33;100677.75;5091095;28;1035;-28
2023/09/24 03:04:50;;;;;;;;;;;;;;;28.67;31.16;100675.97;5098982;28;1910;-28
2023/09/24 03:07:15;;;;;;;;;;;;;;;28.73;31.21;100668.91;5100054;28;1104;-27
2023/09/24 03:09:41;;;;;;;;;;;;;;;28.63;30.96;100671.13;5104945;28;1022;-27
2023/09/24 03:12:07;;;;;;;;;;;;;;;28.84;30.92;100675.66;5079460;28;1376;-30
2023/09/24 03:14:34;;;;;;;;;;;;;;;28.81;31.28;100671.47;5084204;28;1629;-26
2023/09/24 03:16:59;;;;;;;;;;;;;;;28.31;32.57;100671.44;5106130;28;1109;-26
2023/09/24 03:19:25;;;;;;;;;;;;;;;28.29;36.40;100666.22;5101900;28;1354;-31
2023/09/24 03:21:50;;;;;;;;;;;;;;;28.34;35.49;100669.19;5091184;28;1042;-25
2023/09/24 03:24:16;;;;;;;;;;;;;;;28.12;38.28;100671.03;5088544;28;1984;-29
2023/09/24 03:26:42;;;;;;;;;;;;;;;27.95;39.03;100681.25;5117424;28;1093;-28
2023/09/24 03:29:07;;;;;;;;;;;;;;;27.75;42.22;100679.16;5080994;28;1161;-27
2023/09/24 03:31:33;;;;;;;;;;;;;;;27.83;41.42;100689.00;5108315;28;1051;-26
2023/09/24 03:33:59;;;;;;;;;;;;;;;28.04;41.00;100682.81;5080450;28;2007;-26
2023/09/24 03:36:25;;;;;;;;;;;;;;;28.17;39.21;100687.53;5100938;28;1139;-31
2023/09/24 03:38:50;;;;;;;;;;;;;;;28.16;37.98;100688.53;5103232;28;1136;-27
2023/09/24 03:41:16;;;;;;;;;;;;;;;28.08;40.52;100692.22;5105362;28;1041;-25
2023/09/24 03:43:42;;;;;;;;;;;;;;;28.05;41.14;100695.31;5115242;28;1992;-25
2023/09/24 03:46:11;;;;;;;;;;;;;;;28.02;41.68;100697.53;5114844;28;930;-26
2023/09/24 03:48:37;;;;;;;;;;;;;;;28.03;41.68;100699.25;5098573;28;1110;-26
2023/09/24 03:51:02;;;;;;;;;;;;;;;27.78;43.55;100708.50;5087140;28;1224;-28
2023/09/24 03:53:28;;;;;;;;;;;;;;;27.01;44.62;100705.91;5082242;28;1089;-27
2023/09/24 03:55:53;;;;;;;;;;;;;;;27.30;45.37;100700.75;5096744;28;1120;-27
2023/09/24 03:58:19;;;;;;;;;;;;;;;27.55;41.30;100695.91;5100277;28;1066;-27
2023/09/24 04:00:44;;;;;;;;;;;;;;;27.53;45.79;100700.66;5108278;28;1158;-27
2023/09/24 04:03:10;;;;;;;;;;;;;;;27.43;46.68;100700.94;5071339;28;2547;-24
2023/09/24 04:05:37;;;;;;;;;;;;;;;27.70;45.09;100709.44;5105062;28;1913;-25
2023/09/24 04:08:05;;;;;;;;;;;;;;;23.52;56.33;100702.81;5091486;28;1027;-26
2023/09/24 04:10:32;;;;;;;;;;;;;;;22.34;59.37;100700.16;5079294;28;1109;-29
2023/09/24 04:12:58;;;;;;;;;;;;;;;21.66;60.50;100700.38;5095416;28;1125;-27
2023/09/24 04:15:27;;;;;;;;;;;;;;;21.24;60.73;100704.31;5088806;28;1121;-27
2023/09/24 04:17:53;;;;;;;;;;;;;;;21.07;62.01;100701.38;5102883;28;1085;-28
2023/09/24 04:20:20;;;;;;;;;;;;;;;24.07;52.72;100703.38;5116635;28;1133;-26
2023/09/24 04:22:45;;;;;;;;;;;;;;;21.91;57.24;100703.38;5111932;28;1411;-26
2023/09/24 04:25:14;;;;;;;;;;;;;;;20.96;60.80;100705.06;5116810;28;1996;-29
2023/09/24 04:27:42;;;;;;;;;;;;;;;24.04;51.65;100701.03;5102709;28;1122;-27
2023/09/24 04:30:11;;;;;;;;;;;;;;;21.61;57.20;100695.47;5089793;28;1138;-27
2023/09/24 04:32:37;;;;;;;;;;;;;;;20.51;60.85;100711.78;5099719;28;1070;-29
2023/09/24 04:35:02;;;;;;;;;;;;;;;23.38;54.05;100704.19;5101881;28;1196;-27
2023/09/24 04:37:29;;;;;;;;;;;;;;;22.34;56.24;100706.38;5104302;28;1394;-30
2023/09/24 04:39:54;;;;;;;;;;;;;;;24.52;48.91;100709.38;5095662;28;1323;-29
2023/09/24 04:42:20;;;;;;;;;;;;;;;25.19;51.27;100702.13;5095866;28;1348;-31
2023/09/24 04:44:45;;;;;;;;;;;;;;;26.36;45.38;100714.38;5099913;28;1894;-27
2023/09/24 04:47:11;;;;;;;;;;;;;;;26.40;43.83;100715.69;5109462;28;1099;-26
2023/09/24 04:49:36;;;;;;;;;;;;;;;26.73;46.03;100719.97;5116379;28;1054;-27
2023/09/24 04:52:02;;;;;;;;;;;;;;;22.89;51.97;100716.28;5115957;28;1053;-29
2023/09/24 04:54:27;;;;;;;;;;;;;;;21.89;59.80;100724.97;5097230;28;1522;-27
2023/09/24 04:56:53;;;;;;;;;;;;;;;24.94;47.87;100731.78;5095922;28;1084;-29
2023/09/24 04:59:18;;;;;;;;;;;;;;;26.05;46.16;100724.09;5096168;28;963;-27
2023/09/24 05:01:44;;;;;;;;;;;;;;;26.86;43.19;100735.59;5095991;28;1259;-26
2023/09/24 05:04:09;;;;;;;;;;;;;;;23.30;51.38;100732.69;5109227;28;1909;-28
2023/09/24 05:06:35;;;;;;;;;;;;;;;22.38;57.90;100734.56;5095720;28;1041;-28
2023/09/24 05:09:01;;;;;;;;;;;;;;;25.50;46.50;100724.81;5114414;28;1181;-26
2023/09/24 05:11:26;;;;;;;;;;;;;;;26.22;45.54;100724.88;5096140;28;897;-27
2023/09/24 05:13:52;;;;;;;;;;;;;;;22.16;53.60;100718.91;5088142;28;1089;-27
2023/09/24 05:16:19;;;;;;;;;;;;;;;22.71;56.42;100726.03;5090910;28;1367;-27
2023/09/24 05:18:44;;;;;;;;;;;;;;;25.58;45.62;100732.00;5091044;28;1445;-26
2023/09/24 05:21:17;;;;;;;;;;;;;;;26.44;44.17;100730.50;5102827;28;1217;-28
2023/09/24 05:23:43;;;;;;;;;;;;;;;22.43;52.57;100727.91;5082015;28;1907;-25
2023/09/24 05:26:13;;;;;;;;;;;;;;;21.92;59.40;100731.03;5115752;28;1125;-26
2023/09/24 05:28:38;;;;;;;;;;;;;;;25.24;46.80;100720.47;5101372;28;1029;-26
2023/09/24 05:31:04;;;;;;;;;;;;;;;26.14;46.20;100733.00;5103108;28;1054;-26
2023/09/24 05:33:29;;;;;;;;;;;;;;;21.96;54.47;100735.06;5102474;28;1232;-27
2023/09/24 05:35:55;;;;;;;;;;;;;;;23.46;53.14;100741.88;5115427;28;1280;-30
2023/09/24 05:38:20;;;;;;;;;;;;;;;25.94;47.14;100741.53;5115045;28;1030;-30
2023/09/24 05:40:46;;;;;;;;;;;;;;;23.34;50.92;100749.31;5109141;28;1145;-27
2023/09/24 05:43:11;;;;;;;;;;;;;;;21.82;59.78;100756.00;5082050;28;1018;-27
2023/09/24 05:45:44;;;;;;;;;;;;;;;24.87;48.63;100757.66;5113161;28;1978;-29
2023/09/24 05:48:09;;;;;;;;;;;;;;;25.98;48.50;100756.31;5081841;28;1046;-26
2023/09/24 05:50:35;;;;;;;;;;;;;;;21.92;55.08;100757.81;5091897;28;1425;-29
2023/09/24 05:53:00;;;;;;;;;;;;;;;23.20;54.22;100762.31;5108849;28;1151;-29
2023/09/24 05:55:25;;;;;;;;;;;;;;;25.71;46.59;100760.31;5090586;28;1280;-26
2023/09/24 05:57:51;;;;;;;;;;;;;;;26.68;44.45;100768.25;5099715;28;1290;-30
2023/09/24 06:00:16;;;;;;;;;;;;;;;27.10;43.18;100783.16;5102325;28;1453;-26
2023/09/24 06:02:42;;;;;;;;;;;;;;;27.39;43.57;100786.91;5090910;28;1145;-23
2023/09/24 06:05:09;;;;;;;;;;;;;;;27.46;42.83;100788.91;5084637;28;1910;-25
2023/09/24 06:07:34;;;;;;;;;;;;;;;27.67;42.83;100792.72;5105098;28;1007;-26
2023/09/24 06:10:04;;;;;;;;;;;;;;;27.74;42.70;100783.72;5109168;28;1093;-29
2023/09/24 06:12:30;;;;;;;;;;;;;;;27.89;42.38;100782.03;5101238;28;1043;-29
2023/09/24 06:14:56;;;;;;;;;;;;;;;28.03;41.95;100783.88;5091143;28;1217;-27
2023/09/24 06:17:21;;;;;;;;;;;;;;;27.83;42.59;100778.19;5091162;28;1444;-28
2023/09/24 06:19:47;;;;;;;;;;;;;;;27.91;42.23;100780.00;5118653;28;1046;-27
2023/09/24 06:22:12;;;;;;;;;;;;;;;27.78;42.43;100780.66;5103968;28;1105;-29
2023/09/24 06:24:38;;;;;;;;;;;;;;;27.87;42.83;100779.53;5089943;28;1965;-25
2023/09/24 06:27:04;;;;;;;;;;;;;;;27.79;42.12;100785.88;5108510;28;1047;-28
2023/09/24 06:29:32;;;;;;;;;;;;;;;27.90;41.88;100784.56;5118074;28;1088;-26
2023/09/24 06:31:58;;;;;;;;;;;;;;;27.96;41.89;100796.50;5100407;28;1091;-27
2023/09/24 06:34:25;;;;;;;;;;;;;;;28.05;41.78;100794.50;5109881;28;1137;-28
2023/09/24 06:36:51;;;;;;;;;;;;;;;28.04;39.93;100790.13;5084655;28;1094;-26
2023/09/24 06:39:17;;;;;;;;;;;;;;;28.32;40.60;100787.56;5111713;28;1129;-26
2023/09/24 06:41:42;;;;;;;;;;;;;;;28.18;40.50;100786.56;5098119;28;1109;-28
2023/09/24 06:44:08;;;;;;;;;;;;;;;28.10;40.49;100781.25;5097369;28;1897;-29
2023/09/24 06:46:34;;;;;;;;;;;;;;;28.17;40.82;100792.16;5112565;28;1105;-26
2023/09/24 06:49:00;;;;;;;;;;;;;;;28.15;40.37;100800.47;5113195;28;1513;-25
2023/09/24 06:51:26;;;;;;;;;;;;;;;28.15;40.01;100800.47;5097830;28;1129;-24
2023/09/24 06:53:53;;;;;;;;;;;;;;;28.13;39.67;100799.81;5103563;28;1057;-27
2023/09/24 06:56:18;;;;;;;;;;;;;;;28.25;39.94;100794.75;5112650;28;1090;-27
2023/09/24 06:58:44;;;;;;;;;;;;;;;28.08;39.53;100797.69;5103175;28;1110;-25
2023/09/24 07:01:09;;;;;;;;;;;;;;;28.02;40.40;100801.16;5117582;28;1218;-28
2023/09/24 07:03:35;;;;;;;;;;;;;;;28.36;39.27;100805.13;5115912;28;1236;-28
2023/09/24 07:06:04;;;;;;;;;;;;;;;28.43;39.39;100809.75;5093866;28;1910;-26
2023/09/24 07:08:33;;;;;;;;;;;;;;;28.12;39.48;100811.66;5111671;28;1065;-24
2023/09/24 07:11:17;;;;;;;;;;;;;;;27.94;39.66;100802.09;5097982;28;1361;-26
2023/09/24 07:13:43;;;;;;;;;;;;;;;28.30;39.54;100811.25;5104795;28;1196;-27
2023/09/24 07:16:09;;;;;;;;;;;;;;;28.47;39.17;100811.06;5096735;28;1070;-28
2023/09/24 07:18:34;;;;;;;;;;;;;;;28.22;39.46;100814.91;5095084;28;1213;-25
2023/09/24 07:21:00;;;;;;;;;;;;;;;28.31;38.76;100821.03;5109686;28;1163;-30
2023/09/24 07:23:26;;;;;;;;;;;;;;;28.21;38.38;100825.94;5089725;28;1377;-28
2023/09/24 07:25:51;;;;;;;;;;;;;;;28.31;38.93;100812.09;5089183;28;1913;-27
2023/09/24 07:28:16;;;;;;;;;;;;;;;28.20;38.48;100821.53;5096463;28;1170;-26
2023/09/24 07:30:42;;;;;;;;;;;;;;;28.18;38.05;100821.72;5096066;28;1615;-28
2023/09/24 07:33:08;;;;;;;;;;;;;;;28.12;38.76;100822.47;5095278;28;1409;-26
2023/09/24 07:35:34;;;;;;;;;;;;;;;28.43;37.89;100821.44;5095355;28;1339;-27
2023/09/24 07:38:00;;;;;;;;;;;;;;;28.48;38.45;100824.41;5082514;28;1160;-26
2023/09/24 07:40:25;;;;;;;;;;;;;;;28.38;38.64;100815.75;5101870;28;1320;-26
2023/09/24 07:42:50;;;;;;;;;;;;;;;28.37;38.59;100814.09;5117198;28;1116;-27
2023/09/24 07:45:18;;;;;;;;;;;;;;;28.45;38.39;100813.13;5105362;28;1906;-29
2023/09/24 07:47:44;;;;;;;;;;;;;;;28.62;37.89;100816.44;5091539;28;1217;-28
2023/09/24 07:50:10;;;;;;;;;;;;;;;28.47;37.68;100820.03;5103047;28;1165;-28
2023/09/24 07:52:36;;;;;;;;;;;;;;;28.55;38.01;100819.06;5094020;28;1292;-24
2023/09/24 07:55:01;;;;;;;;;;;;;;;28.89;37.11;100824.84;5105095;28;1065;-29
2023/09/24 07:57:27;;;;;;;;;;;;;;;28.67;37.82;100816.69;5110368;28;1154;-30
2023/09/24 07:59:53;;;;;;;;;;;;;;;28.63;37.71;100826.22;5108656;28;1248;-26
2023/09/24 08:02:20;;;;;;;;;;;;;;;28.51;37.71;100817.75;5103312;28;1242;-29
2023/09/24 08:04:46;;;;;;;;;;;;;;;28.48;37.65;100820.84;5104121;28;1971;-24
2023/09/24 08:07:11;;;;;;;;;;;;;;;28.56;38.06;100818.03;5115682;28;1124;-25
2023/09/24 08:09:38;;;;;;;;;;;;;;;28.48;37.08;100824.41;5116702;28;1108;-28
2023/09/24 08:12:04;;;;;;;;;;;;;;;28.56;37.77;100828.03;5107762;28;1013;-26
2023/09/24 08:14:29;;;;;;;;;;;;;;;28.83;37.47;100823.72;5104759;28;1052;-26
2023/09/24 08:16:55;;;;;;;;;;;;;;;28.63;37.43;100831.63;5115433;28;1085;-24
2023/09/24 08:19:20;;;;;;;;;;;;;;;28.70;37.07;100829.00;5102123;28;1370;-27
2023/09/24 08:21:46;;;;;;;;;;;;;;;28.69;37.33;100820.06;5104521;28;1092;-25
2023/09/24 08:24:11;;;;;;;;;;;;;;;28.76;36.93;100825.53;5104697;28;1901;-26
2023/09/24 08:26:37;;;;;;;;;;;;;;;28.71;36.95;100826.09;5107042;28;1050;-29
2023/09/24 08:29:06;;;;;;;;;;;;;;;28.66;37.18;100835.84;5089640;28;1161;-27
2023/09/24 08:31:32;;;;;;;;;;;;;;;28.72;37.75;100826.94;5111577;28;1332;-27
2023/09/24 08:33:58;;;;;;;;;;;;;;;28.87;37.79;100829.59;5090934;28;1729;-28
2023/09/24 08:36:23;;;;;;;;;;;;;;;28.85;37.71;100821.66;5091414;28;1421;-28
2023/09/24 08:38:49;;;;;;;;;;;;;;;28.86;37.46;100830.63;5093920;28;1114;-27
2023/09/24 08:41:14;;;;;;;;;;;;;;;28.83;35.63;100821.03;5107980;28;1147;-26
2023/09/24 08:43:41;;;;;;;;;;;;;;;29.00;36.31;100823.50;5084661;28;1248;-24
2023/09/24 08:46:07;;;;;;;;;;;;;;;28.85;36.63;100826.25;5108141;28;1146;-27
2023/09/24 08:48:33;;;;;;;;;;;;;;;28.92;36.40;100826.31;5083777;28;1329;-28
2023/09/24 08:50:58;;;;;;;;;;;;;;;28.84;37.02;100827.28;5091499;28;1114;-27
2023/09/24 08:53:27;;;;;;;;;;;;;;;29.06;37.17;100822.72;5081258;28;1217;-27
2023/09/24 08:55:53;;;;;;;;;;;;;;;29.16;37.30;100822.38;5095975;28;1070;-26
2023/09/24 08:58:19;;;;;;;;;;;;;;;29.34;36.26;100821.06;5113398;28;1093;-25
2023/09/24 09:00:45;;;;;;;;;;;;;;;29.30;36.19;100823.34;5100167;28;1261;-27
2023/09/24 09:03:10;;;;;;;;;;;;;;;29.31;36.40;100827.72;5115136;28;1088;-28
2023/09/24 09:05:36;;;;;;;;;;;;;;;29.30;35.87;100823.34;5083017;28;1906;-26
2023/09/24 09:08:03;;;;;;;;;;;;;;;29.34;36.06;100821.91;5096386;28;1065;-30
2023/09/24 09:10:29;;;;;;;;;;;;;;;29.33;36.29;100817.53;5115518;28;1069;-28
2023/09/24 09:13:14;;;;;;;;;;;;;;;29.30;36.74;100812.50;5109862;28;874;-28
2023/09/24 09:15:40;;;;;;;;;;;;;;;29.34;36.66;100816.47;5109861;28;1128;-25
2023/09/24 09:18:05;;;;;;;;;;;;;;;29.30;36.14;100819.78;5108492;28;1069;-26
2023/09/24 09:20:43;;;;;;;;;;;;;;;29.22;35.87;100815.34;5110904;28;1136;-25
2023/09/24 09:23:13;;;;;;;;;;;;;;;29.34;34.95;100818.38;5116215;28;1108;-27
2023/09/24 09:26:04;;;;;;;;;;;;;;;29.21;35.70;100819.09;5112819;28;1901;-26
2023/09/24 09:28:31;;;;;;;;;;;;;;;29.42;36.93;100826.34;5102199;28;1945;-27
2023/09/24 09:31:12;;;;;;;;;;;;;;;29.56;35.73;100819.13;5085929;28;1158;-28
2023/09/24 09:33:41;;;;;;;;;;;;;;;29.43;36.29;100821.75;5099359;28;1115;-26
2023/09/24 09:36:27;;;;;;;;;;;;;;;29.78;35.71;100827.22;5085467;28;1296;-27
2023/09/24 09:38:53;;;;;;;;;;;;;;;29.10;34.10;100823.16;5085700;28;1044;-27
2023/09/24 09:41:19;;;;;;;;;;;;;;;29.49;34.64;100812.84;5102962;28;1428;-24
2023/09/24 09:43:47;;;;;;;;;;;;;;;29.55;35.20;100816.63;5109548;28;1914;-25
2023/09/24 09:46:16;;;;;;;;;;;;;;;29.65;34.87;100819.88;5110266;28;1069;-25
2023/09/24 09:48:42;;;;;;;;;;;;;;;29.50;35.50;100824.50;5106553;28;1086;-25
2023/09/24 09:51:08;;;;;;;;;;;;;;;29.57;35.19;100822.69;5081200;28;1118;-24
2023/09/24 09:53:34;;;;;;;;;;;;;;;29.71;34.67;100820.94;5117121;28;1009;-28
2023/09/24 09:56:06;;;;;;;;;;;;;;;29.73;35.13;100818.03;5108655;28;1150;-24
2023/09/24 09:58:33;;;;;;;;;;;;;;;29.66;36.40;100818.00;5098676;28;1343;-27
2023/09/24 10:01:00;;;;;;;;;;;;;;;29.67;36.78;100823.22;5094671;28;1161;-26
2023/09/24 10:03:26;;;;;;;;;;;;;;;29.64;37.24;100823.63;5104652;28;1059;-25
2023/09/24 10:05:51;;;;;;;;;;;;;;;29.96;36.61;100820.47;5114366;28;1902;-31
2023/09/24 10:08:36;;;;;;;;;;;;;;;30.00;36.30;100819.00;5070101;28;1383;-23
2023/09/24 10:11:01;;;;;;;;;;;;;;;29.67;37.47;100820.50;5085120;28;1328;-27
2023/09/24 10:13:46;;;;;;;;;;;;;;;29.78;37.40;100821.81;5083880;28;1115;-25
2023/09/24 10:16:24;;;;;;;;;;;;;;;29.98;36.69;100821.06;5083887;28;1289;-26
2023/09/24 10:18:59;;;;;;;;;;;;;;;29.99;36.50;100825.47;5088110;28;1094;-25
2023/09/24 10:21:30;;;;;;;;;;;;;;;29.95;36.35;100824.19;5099099;28;1051;-24
2023/09/24 10:23:55;;;;;;;;;;;;;;;29.99;37.04;100811.06;5092914;28;1898;-26
2023/09/24 10:26:39;;;;;;;;;;;;;;;30.00;37.38;100823.59;5095588;28;1126;-25
2023/09/24 10:29:05;;;;;;;;;;;;;;;30.12;37.09;100815.72;5094821;28;1351;-25
2023/09/24 10:31:32;;;;;;;;;;;;;;;30.40;36.93;100810.22;5091614;28;999;-29
2023/09/24 10:33:58;;;;;;;;;;;;;;;30.26;37.56;100809.31;5091258;28;1045;-26
2023/09/24 10:36:31;;;;;;;;;;;;;;;30.47;36.87;100809.41;5117327;28;1134;-28
2023/09/24 10:39:02;;;;;;;;;;;;;;;30.35;36.75;100801.00;5114267;28;1145;-23
2023/09/24 10:41:27;;;;;;;;;;;;;;;30.25;37.24;100798.69;5095733;28;1018;-25
2023/09/24 10:44:12;;;;;;;;;;;;;;;30.34;37.53;100799.34;5089605;28;1976;-23
2023/09/24 10:46:37;;;;;;;;;;;;;;;30.28;37.72;100811.88;5109368;28;1092;-25
2023/09/24 10:49:03;;;;;;;;;;;;;;;30.27;37.50;100810.16;5087838;28;1136;-24
2023/09/24 10:51:28;;;;;;;;;;;;;;;30.07;37.90;100808.19;5091228;28;1241;-26
2023/09/24 10:54:12;;;;;;;;;;;;;;;29.99;37.83;100811.91;5099781;28;1074;-24
2023/09/24 10:56:38;;;;;;;;;;;;;;;30.04;38.05;100801.31;5101310;28;1050;-25
2023/09/24 10:59:03;;;;;;;;;;;;;;;29.67;38.84;100801.53;5104249;28;1065;-26
2023/09/24 11:01:30;;;;;;;;;;;;;;;29.93;38.55;100804.56;5101765;28;1078;-29
2023/09/24 11:03:55;;;;;;;;;;;;;;;29.62;39.04;100798.56;5100329;28;1909;-27
2023/09/24 11:06:33;;;;;;;;;;;;;;;29.48;39.25;100804.94;5099643;28;1065;-28
2023/09/24 11:09:15;;;;;;;;;;;;;;;29.72;38.78;100795.50;5111730;28;1080;-27
2023/09/24 11:11:40;;;;;;;;;;;;;;;29.89;38.50;100800.59;5098732;28;1138;-25
2023/09/24 11:14:13;;;;;;;;;;;;;;;25.60;46.02;100794.63;5099104;28;937;-22
2023/09/24 11:16:38;;;;;;;;;;;;;;;23.28;49.34;100796.41;5097491;28;1127;-25
2023/09/24 11:19:04;;;;;;;;;;;;;;;22.97;51.08;100791.47;5106373;28;1085;-27
2023/09/24 11:21:30;;;;;;;;;;;;;;;22.68;51.61;100787.16;5109521;28;1061;-27
2023/09/24 11:23:56;;;;;;;;;;;;;;;22.38;52.16;100790.84;5110706;28;1984;-26
2023/09/24 11:26:28;;;;;;;;;;;;;;;22.20;52.36;100787.28;5116362;28;879;-26
2023/09/24 11:28:57;;;;;;;;;;;;;;;22.06;52.70;100789.47;5100990;28;1373;-26
2023/09/24 11:31:26;;;;;;;;;;;;;;;22.09;52.77;100788.31;5107349;28;1041;-29
2023/09/24 11:33:57;;;;;;;;;;;;;;;22.01;53.11;100794.41;5113650;28;1552;-23
2023/09/24 11:36:27;;;;;;;;;;;;;;;22.45;57.58;100791.09;5098793;28;1069;-25
2023/09/24 11:39:00;;;;;;;;;;;;;;;26.44;43.19;100789.00;5111646;28;1021;-24
2023/09/24 11:41:25;;;;;;;;;;;;;;;22.81;50.37;100786.78;5110171;28;1073;-26
2023/09/24 11:43:54;;;;;;;;;;;;;;;21.81;53.46;100790.94;5117154;28;1972;-26
2023/09/24 11:46:32;;;;;;;;;;;;;;;21.70;53.34;100786.59;5103632;28;1042;-26
2023/09/24 11:49:00;;;;;;;;;;;;;;;21.73;53.29;100788.97;5087010;28;1135;-25
2023/09/24 11:51:26;;;;;;;;;;;;;;;21.62;53.97;100790.84;5095519;28;1212;-27
2023/09/24 11:53:51;;;;;;;;;;;;;;;21.41;54.47;100783.84;5106656;28;848;-25
2023/09/24 11:56:17;;;;;;;;;;;;;;;24.12;49.09;100794.25;5085759;28;1351;-23
2023/09/24 11:58:42;;;;;;;;;;;;;;;26.47;43.35;100792.19;5092254;28;1486;-25
2023/09/24 12:01:09;;;;;;;;;;;;;;;21.96;51.90;100792.19;5113633;28;1057;-25
2023/09/24 12:03:35;;;;;;;;;;;;;;;21.40;53.69;100795.53;5095200;28;1085;-25
2023/09/24 12:06:00;;;;;;;;;;;;;;;21.03;54.98;100804.28;5106580;28;1913;-30
2023/09/24 12:08:26;;;;;;;;;;;;;;;20.97;55.24;100807.53;5100576;28;1150;-26
2023/09/24 12:10:51;;;;;;;;;;;;;;;20.88;55.65;100804.69;5107001;28;1177;-30
2023/09/24 12:13:18;;;;;;;;;;;;;;;20.79;57.82;100801.00;5107013;28;1070;-28
2023/09/24 12:15:43;;;;;;;;;;;;;;;24.58;47.12;100804.69;5117021;28;1038;-29
2023/09/24 12:18:09;;;;;;;;;;;;;;;26.51;42.98;100808.81;5103724;28;1150;-27
2023/09/24 12:20:35;;;;;;;;;;;;;;;27.37;41.18;100809.75;5115130;28;1136;-30
2023/09/24 12:23:03;;;;;;;;;;;;;;;22.49;50.10;100800.50;5088416;28;1065;-23
2023/09/24 12:25:29;;;;;;;;;;;;;;;21.43;51.32;100801.59;5099210;28;1898;-28
2023/09/24 12:27:54;;;;;;;;;;;;;;;20.91;53.04;100804.41;5116745;28;1065;-23
2023/09/24 12:30:20;;;;;;;;;;;;;;;20.63;53.89;100801.56;5102674;28;1110;-24
2023/09/24 12:32:46;;;;;;;;;;;;;;;20.61;54.85;100806.19;5108367;28;1113;-25
2023/09/24 12:35:11;;;;;;;;;;;;;;;20.62;55.06;100812.38;5097562;28;1156;-25
2023/09/24 12:37:37;;;;;;;;;;;;;;;20.61;55.16;100810.69;5115484;28;923;-23
2023/09/24 12:40:07;;;;;;;;;;;;;;;21.20;59.56;100809.91;5101411;28;1053;-28
2023/09/24 12:42:33;;;;;;;;;;;;;;;25.18;44.26;100815.38;5092885;28;1102;-28
2023/09/24 12:44:59;;;;;;;;;;;;;;;26.78;40.86;100806.63;5103997;28;1976;-27
2023/09/24 12:47:25;;;;;;;;;;;;;;;27.75;40.59;100809.72;5110534;28;1072;-25